Time;durP1;ratioP1;P1;durP2;ratioP2;P2;SDS_P1;SDS_P2;PMS_P1;PMS_P2;Temp;Humidity;BMP_temperature;BMP_pressure;BME280_temperature;BME280_humidity;BME280_pressure;Samples;Min_cycle;Max_cycle;Signal;HPM_P1;HPM_P2
2022/07/06 00:02:05;;;;;;;3.53;1.00;;;15.50;80.50;;;;;;5034175;28;20042;-73
2022/07/06 00:04:32;;;;;;;2.85;1.05;;;15.40;80.70;;;;;;5017941;28;20044;-73
2022/07/06 00:07:00;;;;;;;5.88;1.08;;;15.40;81.00;;;;;;5034034;28;20385;-74
2022/07/06 00:09:28;;;;;;;2.22;0.90;;;15.30;81.30;;;;;;5034886;28;20041;-73
2022/07/06 00:11:55;;;;;;;2.97;1.13;;;15.20;81.60;;;;;;5017804;28;20041;-74
2022/07/06 00:14:23;;;;;;;3.45;0.90;;;15.20;81.90;;;;;;5034278;28;20056;-72
2022/07/06 00:16:51;;;;;;;2.45;0.90;;;15.10;82.00;;;;;;5035027;28;20483;-73
2022/07/06 00:19:18;;;;;;;2.17;1.10;;;15.10;82.20;;;;;;5017701;28;20053;-74
2022/07/06 00:21:46;;;;;;;3.92;1.00;;;15.00;82.30;;;;;;5016272;28;20049;-72
2022/07/06 00:24:13;;;;;;;4.47;1.00;;;14.90;82.50;;;;;;5034799;28;20380;-73
2022/07/06 00:26:41;;;;;;;4.68;0.77;;;14.90;82.80;;;;;;5016545;28;20048;-72
2022/07/06 00:29:08;;;;;;;4.13;1.10;;;14.90;82.90;;;;;;5017190;28;20483;-72
2022/07/06 00:31:36;;;;;;;3.70;1.30;;;14.90;82.80;;;;;;5034831;28;20045;-72
2022/07/06 00:34:04;;;;;;;4.00;1.23;;;14.90;82.90;;;;;;5000274;28;20052;-75
2022/07/06 00:36:31;;;;;;;3.28;1.20;;;14.90;82.90;;;;;;5017509;28;20064;-71
2022/07/06 00:38:59;;;;;;;4.25;1.02;;;14.90;83.10;;;;;;5000933;28;20053;-75
2022/07/06 00:41:26;;;;;;;4.15;1.13;;;14.80;83.20;;;;;;5016606;28;20065;-74
2022/07/06 00:43:56;;;;;;;4.57;1.30;;;14.80;83.40;;;;;;5017703;28;20053;-75
2022/07/06 00:46:28;;;;;;;3.88;1.13;;;14.80;83.50;;;;;;5017163;28;20049;-72
2022/07/06 00:48:56;;;;;;;3.22;1.27;;;14.80;83.60;;;;;;5017020;28;20109;-72
2022/07/06 00:51:30;;;;;;;5.20;0.98;;;14.70;83.60;;;;;;5035164;28;20053;-72
2022/07/06 00:54:02;;;;;;;5.47;1.33;;;14.70;83.90;;;;;;5000416;28;20050;-72
2022/07/06 00:56:31;;;;;;;5.47;1.20;;;14.70;83.90;;;;;;5017017;28;20058;-75
2022/07/06 00:59:02;;;;;;;5.53;1.30;;;14.60;84.10;;;;;;5034778;28;20060;-74
2022/07/06 01:01:30;;;;;;;4.55;1.25;;;14.50;84.30;;;;;;5016290;28;20037;-72
2022/07/06 01:03:58;;;;;;;5.18;1.20;;;14.50;84.30;;;;;;5038992;28;20042;-76
2022/07/06 01:06:25;;;;;;;6.88;1.40;;;14.40;84.60;;;;;;5021062;28;20044;-73
2022/07/06 01:08:54;;;;;;;4.03;1.23;;;14.40;84.80;;;;;;5020024;28;20037;-74
2022/07/06 01:11:22;;;;;;;3.65;1.10;;;14.30;85.00;;;;;;5021153;28;20041;-75
2022/07/06 01:13:50;;;;;;;7.35;1.45;;;14.30;85.40;;;;;;5003862;28;20056;-73
2022/07/06 01:16:18;;;;;;;4.30;1.60;;;14.20;85.60;;;;;;5038197;28;20053;-74
2022/07/06 01:18:47;;;;;;;4.20;1.30;;;14.20;85.80;;;;;;5038356;28;20068;-74
2022/07/06 01:21:15;;;;;;;6.45;1.35;;;14.10;86.00;;;;;;5019901;28;20060;-75
2022/07/06 01:23:45;;;;;;;6.40;1.38;;;14.10;86.10;;;;;;5021217;28;20456;-73
2022/07/06 01:26:15;;;;;;;5.68;1.42;;;14.10;86.20;;;;;;5004701;28;20064;-73
2022/07/06 01:28:43;;;;;;;5.60;1.48;;;14.10;86.50;;;;;;5019611;28;20046;-71
2022/07/06 01:31:34;;;;;;;6.28;1.42;;;14.10;86.50;;;;;;5038090;28;20045;-74
2022/07/06 01:34:02;;;;;;;5.35;1.38;;;14.10;86.60;;;;;;5036867;28;20488;-73
2022/07/06 01:36:30;;;;;;;7.97;1.30;;;14.10;86.40;;;;;;5020694;28;20049;-76
2022/07/06 01:39:00;;;;;;;6.38;1.38;;;14.10;86.60;;;;;;5020705;28;20045;-77
2022/07/06 01:41:29;;;;;;;6.20;1.50;;;14.00;86.50;;;;;;5036950;28;20494;-75
2022/07/06 01:43:57;;;;;;;4.88;1.60;;;14.00;86.70;;;;;;5037794;28;20376;-76
2022/07/06 01:46:25;;;;;;;5.97;1.17;;;14.00;86.90;;;;;;5020540;28;20045;-74
2022/07/06 01:48:53;;;;;;;4.68;1.40;;;13.90;87.20;;;;;;5002992;28;20045;-75
2022/07/06 01:51:21;;;;;;;5.18;1.60;;;13.80;87.30;;;;;;5020247;28;20056;-74
2022/07/06 01:53:49;;;;;;;6.65;1.33;;;13.80;87.30;;;;;;5019865;28;20048;-74
2022/07/06 01:56:19;;;;;;;9.35;1.83;;;13.80;87.60;;;;;;5020685;28;20377;-75
2022/07/06 01:58:50;;;;;;;6.75;1.33;;;13.80;87.80;;;;;;5020575;28;20057;-75
2022/07/06 02:01:20;;;;;;;6.82;1.50;;;13.70;87.70;;;;;;5019200;28;20387;-75
2022/07/06 02:03:48;;;;;;;7.15;1.50;;;13.70;88.10;;;;;;5020111;28;20056;-73
2022/07/06 02:06:16;;;;;;;;;;;13.70;88.70;;;;;;5037609;28;20052;-74
2022/07/06 02:08:47;;;;;;;8.18;1.55;;;13.70;89.30;;;;;;5003267;28;19928;-75
2022/07/06 02:11:14;;;;;;;6.78;1.58;;;13.60;88.20;;;;;;5020122;28;20057;-75
2022/07/06 02:13:43;;;;;;;4.05;1.45;;;13.60;88.50;;;;;;5018320;28;20042;-75
2022/07/06 02:16:12;;;;;;;8.70;1.83;;;13.50;88.60;;;;;;5020000;28;20368;-73
2022/07/06 02:18:41;;;;;;;9.15;1.70;;;13.50;89.00;;;;;;5019949;28;20042;-75
2022/07/06 02:21:08;;;;;;;7.72;1.73;;;13.50;89.10;;;;;;5019146;28;20046;-78
2022/07/06 02:23:36;;;;;;;8.52;1.65;;;13.50;89.20;;;;;;5003621;28;20037;-74
2022/07/06 02:26:04;;;;;;;8.60;1.63;;;13.50;89.40;;;;;;5019554;28;20041;-74
2022/07/06 02:28:32;;;;;;;10.05;1.90;;;13.50;89.60;;;;;;5018608;28;20045;-76
2022/07/06 02:31:00;;;;;;;7.55;1.80;;;13.50;89.50;;;;;;5051496;28;20053;-75
2022/07/06 02:33:29;;;;;;;6.13;1.73;;;13.50;89.60;;;;;;5055042;28;20394;-74
2022/07/06 02:35:57;;;;;;;11.88;2.00;;;13.50;89.50;;;;;;5056061;28;20377;-74
2022/07/06 02:38:25;;;;;;;8.98;1.70;;;13.50;89.70;;;;;;5056686;28;20380;-75
2022/07/06 02:40:53;;;;;;;6.65;1.67;;;13.50;89.70;;;;;;5054848;28;20044;-74
2022/07/06 02:43:21;;;;;;;9.23;1.73;;;13.50;89.90;;;;;;5056759;28;20391;-74
2022/07/06 02:45:50;;;;;;;6.40;1.58;;;13.40;89.90;;;;;;5055986;28;20049;-75
2022/07/06 02:48:21;;;;;;;7.15;1.88;;;13.40;89.90;;;;;;5055503;28;20383;-75
2022/07/06 02:50:50;;;;;;;8.35;1.63;;;13.40;90.00;;;;;;5056007;28;20052;-76
2022/07/06 02:53:19;;;;;;;6.78;1.58;;;13.40;90.10;;;;;;5054512;28;20029;-74
2022/07/06 02:55:50;;;;;;;6.63;1.70;;;13.40;90.00;;;;;;5055775;28;20041;-74
2022/07/06 02:58:17;;;;;;;8.73;1.60;;;13.40;90.00;;;;;;5055760;28;20052;-76
2022/07/06 03:00:46;;;;;;;6.40;1.60;;;13.40;90.10;;;;;;5054365;28;20068;-75
2022/07/06 03:03:14;;;;;;;8.38;1.60;;;13.30;90.10;;;;;;5055497;28;20045;-74
2022/07/06 03:05:42;;;;;;;7.47;1.60;;;13.30;90.10;;;;;;5055704;28;20052;-74
2022/07/06 03:08:10;;;;;;;4.85;1.25;;;13.30;90.20;;;;;;5037668;28;20041;-73
2022/07/06 03:10:37;;;;;;;8.88;1.98;;;13.30;90.20;;;;;;5055076;28;20475;-76
2022/07/06 03:13:05;;;;;;;5.22;1.70;;;13.30;90.20;;;;;;5055540;28;20040;-74
2022/07/06 03:15:34;;;;;;;6.07;1.60;;;13.30;90.30;;;;;;5054088;28;20477;-75
2022/07/06 03:18:02;;;;;;;;;;;13.30;90.30;;;;;;5055469;28;20049;-75
2022/07/06 03:20:31;;;;;;;5.38;1.60;;;13.30;90.60;;;;;;5054168;28;19921;-75
2022/07/06 03:22:59;;;;;;;5.05;1.90;;;13.20;90.20;;;;;;5038451;28;20056;-76
2022/07/06 03:25:26;;;;;;;5.75;1.58;;;13.20;90.30;;;;;;5055112;28;20049;-74
2022/07/06 03:27:54;;;;;;;7.70;1.67;;;13.20;90.40;;;;;;5053671;28;20055;-76
2022/07/06 03:30:22;;;;;;;6.55;1.80;;;13.20;90.50;;;;;;5054720;28;20052;-76
2022/07/06 03:32:54;;;;;;;5.68;1.67;;;13.20;90.50;;;;;;5055171;28;20041;-74
2022/07/06 03:35:22;;;;;;;10.68;1.83;;;13.10;90.60;;;;;;5054036;28;20058;-75
2022/07/06 03:37:52;;;;;;;5.85;1.73;;;13.10;90.70;;;;;;5055392;28;20396;-76
2022/07/06 03:40:22;;;;;;;4.50;1.52;;;13.00;90.60;;;;;;5054137;28;20049;-76
2022/07/06 03:42:52;;;;;;;6.10;1.65;;;13.00;90.80;;;;;;5054782;28;20041;-74
2022/07/06 03:45:20;;;;;;;;;;;13.00;90.80;;;;;;5055115;28;20045;-75
2022/07/06 03:47:48;;;;;;;7.30;1.88;;;13.00;91.20;;;;;;5053364;28;19924;-75
2022/07/06 03:50:15;;;;;;;6.57;1.65;;;13.00;90.90;;;;;;5054636;28;20372;-73
2022/07/06 03:52:43;;;;;;;10.95;2.08;;;13.00;90.90;;;;;;5055044;28;20037;-74
2022/07/06 03:55:11;;;;;;;8.32;1.73;;;13.00;90.90;;;;;;5036946;28;20037;-75
2022/07/06 03:57:43;;;;;;;10.13;2.10;;;13.00;91.00;;;;;;5038078;28;20057;-76
2022/07/06 04:00:15;;;;;;;8.77;1.80;;;12.90;91.10;;;;;;5036845;28;20071;-73
2022/07/06 04:02:46;;;;;;;7.22;1.63;;;12.90;91.20;;;;;;5054171;28;20491;-76
2022/07/06 04:05:21;;;;;;;5.72;1.48;;;12.80;91.20;;;;;;5054283;28;20056;-75
2022/07/06 04:07:50;;;;;;;7.65;1.98;;;12.80;91.30;;;;;;5053150;28;20455;-75
2022/07/06 04:10:18;;;;;;;8.65;1.88;;;12.80;91.40;;;;;;5037346;28;20375;-76
2022/07/06 04:12:46;;;;;;;6.50;1.60;;;12.80;91.50;;;;;;5054081;28;20052;-76
2022/07/06 04:15:15;;;;;;;8.70;1.90;;;12.80;91.60;;;;;;5052730;28;20041;-76
2022/07/06 04:17:51;;;;;;;9.38;2.00;;;12.80;91.60;;;;;;5054287;28;20056;-74
2022/07/06 04:20:24;;;;;;;6.93;1.80;;;12.80;91.60;;;;;;5053313;28;20049;-75
2022/07/06 04:22:52;;;;;;;7.00;1.50;;;12.80;91.70;;;;;;5037764;28;20490;-75
2022/07/06 04:25:22;;;;;;;9.93;1.63;;;12.80;91.70;;;;;;5054075;28;20041;-73
2022/07/06 04:27:50;;;;;;;6.70;1.92;;;12.80;91.90;;;;;;5052725;28;20395;-75
2022/07/06 04:30:18;;;;;;;10.02;2.25;;;12.90;91.70;;;;;;5053689;28;20064;-75
2022/07/06 04:32:47;;;;;;;6.30;1.67;;;12.90;91.70;;;;;;5053785;28;20044;-77
2022/07/06 04:35:15;;;;;;;6.95;2.00;;;13.00;91.70;;;;;;5052869;28;20047;-75
2022/07/06 04:37:46;;;;;;;9.40;1.80;;;13.10;91.60;;;;;;5037634;28;20048;-76
2022/07/06 04:40:15;;;;;;;6.38;1.70;;;13.20;91.60;;;;;;5036060;28;20075;-74
2022/07/06 04:42:47;;;;;;;6.45;1.90;;;13.20;91.50;;;;;;5054120;28;20041;-75
2022/07/06 04:45:15;;;;;;;6.97;1.85;;;13.40;91.50;;;;;;5054202;28;20090;-74
2022/07/06 04:47:44;;;;;;;10.77;2.13;;;13.50;91.40;;;;;;5052757;28;20044;-75
2022/07/06 04:50:13;;;;;;;8.95;2.03;;;13.60;91.30;;;;;;5053646;28;20045;-74
2022/07/06 04:52:41;;;;;;;10.82;2.00;;;13.70;91.20;;;;;;5037250;28;20049;-74
2022/07/06 04:55:10;;;;;;;8.07;1.98;;;13.80;91.10;;;;;;5052589;28;20045;-75
2022/07/06 04:57:38;;;;;;;10.18;2.42;;;13.90;90.90;;;;;;5053772;28;20060;-76
2022/07/06 05:00:06;;;;;;;;;;;14.00;90.80;;;;;;5052965;28;20045;-73
2022/07/06 05:02:34;;;;;;;;;;;14.10;90.60;;;;;;5037289;28;19932;-74
2022/07/06 05:05:02;;;;;;;12.20;2.40;;;14.20;90.60;;;;;;5053580;28;19927;-76
2022/07/06 05:07:30;;;;;;;8.18;2.15;;;14.30;90.40;;;;;;5052377;28;20380;-76
2022/07/06 05:09:58;;;;;;;10.80;2.20;;;14.30;90.30;;;;;;5036753;28;20049;-75
2022/07/06 05:12:26;;;;;;;9.52;1.95;;;14.40;90.30;;;;;;5053845;28;20393;-78
2022/07/06 05:14:54;;;;;;;;;;;14.40;90.20;;;;;;5036630;28;20033;-75
2022/07/06 05:17:22;;;;;;;14.90;2.53;;;14.50;90.10;;;;;;5053580;28;19928;-77
2022/07/06 05:19:57;;;;;;;8.23;1.83;;;14.70;90.20;;;;;;5052307;28;20045;-76
2022/07/06 05:22:26;;;;;;;7.18;1.83;;;14.70;90.00;;;;;;5036692;28;20411;-77
2022/07/06 05:24:54;;;;;;;;;;;14.80;89.80;;;;;;5037577;28;20068;-78
2022/07/06 05:27:22;;;;;;;7.20;2.03;;;14.80;89.50;;;;;;5052255;28;19921;-74
2022/07/06 05:29:50;;;;;;;9.68;2.30;;;14.90;89.60;;;;;;5053246;28;20387;-75
2022/07/06 05:32:18;;;;;;;;;;;14.90;89.40;;;;;;5036999;28;20056;-74
2022/07/06 05:34:45;;;;;;;7.78;1.92;;;14.90;89.70;;;;;;5036014;28;19931;-75
2022/07/06 05:37:13;;;;;;;8.85;1.90;;;14.90;89.30;;;;;;5053422;28;20038;-74
2022/07/06 05:39:45;;;;;;;;;;;14.90;89.30;;;;;;5053908;28;20041;-75
2022/07/06 05:42:13;;;;;;;8.18;2.05;;;15.00;89.40;;;;;;5035446;28;19921;-74
2022/07/06 05:44:42;;;;;;;9.85;2.00;;;15.10;89.10;;;;;;5053271;28;20041;-75
2022/07/06 05:50:14;;;;;;;10.18;1.90;;;15.30;89.00;;;;;;5056598;28;20041;-76
2022/07/06 05:52:57;;;;;;;8.95;2.15;;;15.40;88.70;;;;;;5041897;28;20056;-75
2022/07/06 05:55:25;;;;;;;8.02;2.00;;;15.50;88.40;;;;;;5039011;28;20372;-75
2022/07/06 05:57:55;;;;;;;8.93;2.03;;;15.60;88.00;;;;;;5040532;28;20049;-73
2022/07/06 06:00:26;;;;;;;10.88;2.20;;;15.70;88.10;;;;;;5039152;28;20045;-75
2022/07/06 06:02:58;;;;;;;9.63;2.17;;;15.70;88.00;;;;;;5040519;28;20045;-76
2022/07/06 06:05:26;;;;;;;12.20;1.77;;;15.80;87.80;;;;;;5040097;28;20056;-74
2022/07/06 06:07:59;;;;;;;9.18;2.05;;;15.90;87.70;;;;;;5055335;28;20037;-77
2022/07/06 06:10:27;;;;;;;9.70;2.20;;;16.00;87.70;;;;;;5057131;28;20080;-77
2022/07/06 06:12:58;;;;;;;8.90;2.25;;;16.00;87.40;;;;;;5056776;28;20048;-74
2022/07/06 06:15:28;;;;;;;7.35;2.10;;;16.10;87.40;;;;;;5038462;28;20048;-75
2022/07/06 06:17:56;;;;;;;7.15;2.10;;;16.10;87.00;;;;;;5057201;28;20057;-76
2022/07/06 06:20:23;;;;;;;9.93;2.25;;;16.20;87.00;;;;;;5056037;28;20045;-76
2022/07/06 06:22:56;;;;;;;10.20;2.10;;;16.30;86.70;;;;;;5056104;28;20052;-77
2022/07/06 06:25:32;;;;;;;9.07;2.08;;;16.50;86.60;;;;;;5057164;28;20056;-74
2022/07/06 06:28:01;;;;;;;9.40;2.38;;;16.50;86.10;;;;;;5055944;28;20045;-77
2022/07/06 06:30:28;;;;;;;12.07;2.05;;;16.60;85.90;;;;;;5043136;28;20060;-74
2022/07/06 06:33:09;;;;;;;6.60;1.90;;;16.60;85.70;;;;;;5037064;28;20056;-76
2022/07/06 06:35:38;;;;;;;10.38;2.00;;;16.70;85.50;;;;;;5036849;28;20041;-73
2022/07/06 06:38:05;;;;;;;13.10;2.50;;;16.70;85.90;;;;;;5003313;28;20053;-77
2022/07/06 06:40:33;;;;;;;7.85;2.28;;;16.70;85.30;;;;;;5035699;28;20041;-76
2022/07/06 06:43:01;;;;;;;11.40;2.38;;;17.00;85.40;;;;;;5036657;28;20049;-73
2022/07/06 06:45:31;;;;;;;9.32;2.33;;;16.80;85.20;;;;;;5019247;28;20049;-77
2022/07/06 06:47:58;;;;;;;12.88;2.53;;;16.90;85.20;;;;;;5035537;28;20045;-75
2022/07/06 06:50:26;;;;;;;8.80;2.13;;;17.00;85.10;;;;;;5036811;28;20486;-76
2022/07/06 06:52:53;;;;;;;14.38;2.40;;;17.10;85.00;;;;;;5035990;28;20052;-76
2022/07/06 06:55:21;;;;;;;10.52;2.42;;;17.20;85.40;;;;;;5035144;28;20041;-74
2022/07/06 06:57:49;;;;;;;9.70;2.40;;;17.30;84.50;;;;;;5018891;28;20049;-76
2022/07/06 07:00:16;;;;;;;9.20;2.20;;;17.50;84.50;;;;;;5017328;28;20050;-76
2022/07/06 07:02:45;;;;;;;9.80;2.05;;;17.60;84.80;;;;;;5036128;28;20069;-74
2022/07/06 07:05:12;;;;;;;9.63;2.42;;;17.80;84.60;;;;;;5018680;28;20038;-75
2022/07/06 07:07:40;;;;;;;9.30;2.10;;;18.00;84.10;;;;;;5017450;28;20045;-75
2022/07/06 07:10:08;;;;;;;7.35;2.10;;;18.00;83.70;;;;;;5018397;28;20057;-75
2022/07/06 07:12:41;;;;;;;12.15;2.05;;;18.10;83.70;;;;;;5035922;28;20360;-73
2022/07/06 07:15:09;;;;;;;12.20;2.17;;;18.20;83.50;;;;;;5034791;28;20460;-74
2022/07/06 07:17:37;;;;;;;6.70;2.03;;;18.20;83.50;;;;;;5035797;28;20120;-73
2022/07/06 07:20:06;;;;;;;7.00;2.10;;;18.20;83.30;;;;;;5017292;28;20064;-75
2022/07/06 07:22:33;;;;;;;5.53;1.88;;;18.20;83.20;;;;;;5035316;28;20049;-74
2022/07/06 07:25:01;;;;;;;7.10;2.15;;;18.20;83.10;;;;;;5018391;28;20053;-74
2022/07/06 07:27:28;;;;;;;7.10;2.17;;;18.20;83.10;;;;;;5034439;28;20049;-74
2022/07/06 07:29:56;;;;;;;6.75;2.05;;;18.20;83.00;;;;;;5023061;28;20060;-74
2022/07/06 07:32:25;;;;;;;10.35;2.00;;;18.20;82.90;;;;;;5053775;28;20373;-73
2022/07/06 07:34:53;;;;;;;9.32;1.80;;;18.30;82.60;;;;;;5048501;28;20487;-75
2022/07/06 07:37:21;;;;;;;6.60;1.85;;;18.40;82.10;;;;;;5043522;28;20046;-75
2022/07/06 07:39:48;;;;;;;8.43;1.88;;;18.50;82.00;;;;;;5054165;28;20040;-74
2022/07/06 07:42:16;;;;;;;9.95;1.80;;;18.60;81.80;;;;;;5053556;28;20048;-74
2022/07/06 07:44:45;;;;;;;4.05;1.60;;;18.70;81.40;;;;;;5055765;28;20049;-73
2022/07/06 07:47:12;;;;;;;9.98;1.92;;;18.70;80.90;;;;;;5053689;28;20044;-73
2022/07/06 07:49:40;;;;;;;10.10;1.80;;;18.60;81.40;;;;;;5038285;28;20040;-73
2022/07/06 07:52:08;;;;;;;6.18;1.63;;;18.50;81.80;;;;;;5055255;28;20040;-75
2022/07/06 07:54:35;;;;;;;7.40;1.83;;;18.40;82.10;;;;;;5053711;28;20116;-75
2022/07/06 07:57:03;;;;;;;7.68;1.90;;;18.40;82.50;;;;;;5054258;28;20041;-74
2022/07/06 07:59:31;;;;;;;7.75;1.80;;;18.50;82.60;;;;;;5055075;28;20049;-74
2022/07/06 08:01:59;;;;;;;6.43;1.75;;;18.60;82.80;;;;;;5053210;28;20464;-74
2022/07/06 08:04:26;;;;;;;7.18;1.80;;;18.70;83.30;;;;;;5055063;28;20056;-73
2022/07/06 08:06:54;;;;;;;4.13;1.63;;;18.90;82.60;;;;;;5053012;28;20048;-75
2022/07/06 08:09:28;;;;;;;6.32;1.50;;;19.10;82.60;;;;;;5050129;28;20052;-73
2022/07/06 08:11:56;;;;;;;5.07;1.60;;;19.20;82.70;;;;;;5053528;28;20057;-72
2022/07/06 08:14:24;;;;;;;5.38;1.55;;;19.40;82.60;;;;;;5054109;28;20048;-75
2022/07/06 08:16:52;;;;;;;4.22;1.73;;;19.60;81.80;;;;;;5054828;28;20048;-77
2022/07/06 08:19:20;;;;;;;3.85;1.42;;;19.70;81.80;;;;;;5053968;28;20053;-74
2022/07/06 08:21:47;;;;;;;7.68;2.00;;;19.80;81.50;;;;;;5053206;28;20068;-74
2022/07/06 08:24:15;;;;;;;4.55;1.63;;;19.80;81.20;;;;;;5054838;28;20045;-74
2022/07/06 08:26:42;;;;;;;7.68;1.60;;;19.90;81.20;;;;;;5050059;28;20056;-75
2022/07/06 08:29:10;;;;;;;6.72;2.00;;;19.90;81.20;;;;;;5031370;28;20061;-74
2022/07/06 08:31:39;;;;;;;8.80;1.80;;;19.90;81.10;;;;;;4982161;28;20042;-73
2022/07/06 08:34:24;;;;;;;6.68;1.77;;;20.00;81.20;;;;;;5013312;28;20444;-73
2022/07/06 08:37:00;;;;;;;6.20;1.80;;;20.00;81.40;;;;;;5014922;28;20042;-74
2022/07/06 08:39:30;;;;;;;6.90;2.00;;;20.10;81.40;;;;;;5014771;28;20468;-76
2022/07/06 08:42:00;;;;;;;4.50;1.58;;;20.10;81.30;;;;;;4996297;28;20060;-73
2022/07/06 08:44:29;;;;;;;4.55;1.58;;;20.20;81.60;;;;;;4997636;28;20049;-73
2022/07/06 08:47:01;;;;;;;6.88;1.50;;;20.30;81.60;;;;;;5013536;28;20049;-75
2022/07/06 08:49:31;;;;;;;3.33;1.50;;;20.40;81.80;;;;;;4997555;28;20460;-74
2022/07/06 08:51:58;;;;;;;5.05;1.42;;;20.50;81.80;;;;;;5014662;28;20372;-75
2022/07/06 08:54:27;;;;;;;3.17;1.23;;;20.60;81.80;;;;;;4996808;28;20042;-73
2022/07/06 08:56:56;;;;;;;6.75;1.58;;;20.70;81.20;;;;;;4997698;28;20046;-75
2022/07/06 08:59:24;;;;;;;6.10;1.60;;;20.80;81.20;;;;;;4997938;28;20050;-76
2022/07/06 09:01:52;;;;;;;4.35;1.50;;;20.80;81.20;;;;;;5013567;28;20380;-76
2022/07/06 09:04:22;;;;;;;6.13;1.70;;;20.90;81.30;;;;;;4997846;28;20049;-75
2022/07/06 09:06:50;;;;;;;4.25;1.50;;;21.00;81.30;;;;;;4996360;28;20054;-74
2022/07/06 09:09:21;;;;;;;5.97;2.22;;;21.10;81.30;;;;;;5014533;28;20046;-71
2022/07/06 09:11:49;;;;;;;3.42;1.60;;;21.10;80.90;;;;;;5015077;28;20061;-74
2022/07/06 09:14:18;;;;;;;;;;;21.00;81.20;;;;;;4997104;28;20061;-72
2022/07/06 09:16:51;;;;;;;3.45;1.55;;;21.00;81.50;;;;;;4997713;28;20253;-73
2022/07/06 09:19:19;;;;;;;5.15;1.40;;;20.90;81.80;;;;;;5014520;28;20488;-73
2022/07/06 09:21:47;;;;;;;6.60;1.50;;;20.90;82.10;;;;;;5013618;28;20054;-72
2022/07/06 09:24:15;;;;;;;5.50;1.30;;;21.00;82.10;;;;;;5000346;28;20056;-72
2022/07/06 09:26:47;;;;;;;4.90;1.30;;;21.20;82.30;;;;;;5000515;28;20054;-73
2022/07/06 09:29:14;;;;;;;4.30;1.25;;;21.60;82.40;;;;;;5018385;28;20053;-73
2022/07/06 09:31:43;;;;;;;6.00;1.38;;;21.50;81.90;;;;;;5018241;28;20046;-74
2022/07/06 09:34:11;;;;;;;5.47;1.33;;;21.60;81.40;;;;;;5017609;28;20041;-74
2022/07/06 09:36:44;;;;;;;5.45;1.30;;;21.70;81.50;;;;;;4985220;28;20053;-73
2022/07/06 09:39:19;;;;;;;3.00;0.85;;;21.80;81.60;;;;;;5001522;28;20045;-72
2022/07/06 09:41:49;;;;;;;6.15;1.25;;;21.80;81.50;;;;;;5000157;28;20483;-76
2022/07/06 09:44:33;;;;;;;4.60;1.27;;;21.80;81.40;;;;;;5000894;28;20068;-72
2022/07/06 09:47:04;;;;;;;5.45;1.30;;;21.80;81.20;;;;;;5017351;28;20376;-73
2022/07/06 09:49:32;;;;;;;1.42;0.73;;;21.80;81.80;;;;;;5001201;28;20064;-72
2022/07/06 09:52:02;;;;;;;4.25;0.95;;;21.80;81.60;;;;;;5000647;28;20050;-73
2022/07/06 09:54:30;;;;;;;4.35;1.10;;;21.80;81.30;;;;;;5016951;28;20065;-72
2022/07/06 09:56:58;;;;;;;2.45;1.05;;;21.80;81.30;;;;;;5017911;28;20050;-72
2022/07/06 09:59:33;;;;;;;2.50;1.20;;;21.80;81.60;;;;;;5018178;28;20053;-72
2022/07/06 10:02:07;;;;;;;3.47;0.93;;;21.90;81.40;;;;;;4999718;28;20145;-74
2022/07/06 10:04:35;;;;;;;2.55;0.90;;;22.00;81.40;;;;;;5017042;28;20060;-72
2022/07/06 10:07:06;;;;;;;2.65;0.90;;;22.10;80.80;;;;;;4998979;28;20054;-73
2022/07/06 10:09:34;;;;;;;5.55;1.30;;;22.10;80.40;;;;;;5017198;28;20055;-73
2022/07/06 10:12:05;;;;;;;2.58;0.98;;;22.10;80.40;;;;;;5000117;28;20042;-74
2022/07/06 10:14:33;;;;;;;4.57;1.25;;;22.20;80.40;;;;;;5016189;28;20371;-75
2022/07/06 10:17:06;;;;;;;3.10;1.20;;;22.30;80.40;;;;;;5000035;28;20050;-73
2022/07/06 10:19:34;;;;;;;4.18;0.90;;;22.30;80.20;;;;;;5016981;28;20460;-72
2022/07/06 10:22:03;;;;;;;4.18;1.20;;;22.40;80.00;;;;;;5015828;28;20054;-73
2022/07/06 10:24:34;;;;;;;4.00;1.27;;;22.30;79.90;;;;;;5017036;28;20053;-73
2022/07/06 10:27:02;;;;;;;2.33;1.13;;;22.30;80.50;;;;;;5015918;28;20057;-73
2022/07/06 10:29:31;;;;;;;3.75;1.13;;;22.30;80.20;;;;;;5003508;28;20061;-74
2022/07/06 10:32:00;;;;;;;7.35;1.73;;;22.30;80.10;;;;;;5016966;28;20046;-75
2022/07/06 10:34:28;;;;;;;12.88;2.10;;;22.30;80.10;;;;;;5014622;28;20376;-72
2022/07/06 10:36:55;;;;;;;7.45;1.30;;;22.40;79.80;;;;;;5016894;28;20049;-75
2022/07/06 10:42:59;;;;;;;165.07;9.05;;;22.60;79.50;;;;;;5016591;28;20038;-74
2022/07/06 10:45:29;;;;;;;3.03;1.15;;;23.00;79.30;;;;;;4992975;28;20061;-73
2022/07/06 10:48:12;;;;;;;2.33;1.10;;;23.20;78.20;;;;;;5015321;28;20479;-72
2022/07/06 10:50:55;;;;;;;3.97;1.30;;;23.30;77.20;;;;;;5016490;28;20057;-71
2022/07/06 10:53:25;;;;;;;3.70;1.10;;;23.40;77.50;;;;;;5015481;28;20046;-72
2022/07/06 10:55:54;;;;;;;2.25;0.70;;;23.40;77.70;;;;;;5016620;28;20054;-75
2022/07/06 10:58:46;;;;;;;3.25;0.80;;;23.50;77.50;;;;;;4983094;28;20060;-72
2022/07/06 11:01:15;;;;;;;2.50;1.20;;;23.50;77.70;;;;;;4998068;28;20054;-72
2022/07/06 11:03:47;;;;;;;6.10;1.10;;;23.50;77.40;;;;;;4982619;28;20054;-72
2022/07/06 11:06:20;;;;;;;4.47;1.25;;;23.40;77.10;;;;;;4999038;28;20049;-71
2022/07/06 11:08:48;;;;;;;2.33;0.85;;;23.20;77.80;;;;;;4997948;28;20494;-73
2022/07/06 11:11:17;;;;;;;;;;;23.10;77.90;;;;;;5026536;28;20041;-72
2022/07/06 11:13:52;;;;;;;2.92;0.90;;;22.90;78.00;;;;;;5024509;28;19933;-72
2022/07/06 11:16:23;;;;;;;2.97;1.05;;;23.00;78.00;;;;;;5006714;28;20412;-72
2022/07/06 11:19:03;;;;;;;1.83;0.93;;;22.90;77.90;;;;;;5035045;28;20045;-72
2022/07/06 11:21:35;;;;;;;3.85;0.90;;;23.00;78.30;;;;;;5032191;28;20046;-75
2022/07/06 11:24:08;;;;;;;2.45;0.90;;;23.00;77.80;;;;;;5007611;28;20073;-74
2022/07/06 11:26:36;;;;;;;3.15;0.82;;;23.20;77.70;;;;;;5000902;28;20061;-72
2022/07/06 11:29:09;;;;;;;2.90;0.80;;;23.20;77.80;;;;;;5022482;28;20046;-75
2022/07/06 11:31:43;;;;;;;1.85;0.70;;;23.50;77.90;;;;;;5015849;28;20092;-74
2022/07/06 11:34:14;;;;;;;4.28;1.05;;;23.60;76.70;;;;;;4997443;28;20053;-75
2022/07/06 11:36:41;;;;;;;2.58;0.70;;;23.80;76.30;;;;;;4998153;28;20480;-75
2022/07/06 11:39:13;;;;;;;4.10;0.90;;;23.90;76.30;;;;;;4981218;28;20065;-73
2022/07/06 11:41:42;;;;;;;3.63;0.85;;;24.00;75.80;;;;;;5013109;28;20061;-72
2022/07/06 11:44:17;;;;;;;3.30;1.10;;;24.00;75.70;;;;;;5017851;28;20049;-73
2022/07/06 11:46:45;;;;;;;4.28;1.02;;;24.20;75.60;;;;;;5033592;28;20045;-72
2022/07/06 11:49:16;;;;;;;2.90;0.95;;;24.30;75.00;;;;;;5001809;28;20049;-73
2022/07/06 11:51:45;;;;;;;1.40;0.70;;;24.40;74.90;;;;;;5035237;28;20045;-75
2022/07/06 11:54:15;;;;;;;1.52;0.70;;;24.50;74.30;;;;;;5016967;28;20379;-73
2022/07/06 11:56:47;;;;;;;3.03;0.70;;;24.60;74.10;;;;;;5018116;28;20041;-74
2022/07/06 11:59:16;;;;;;;3.65;1.00;;;24.60;74.10;;;;;;5035082;28;20045;-74
2022/07/06 12:01:44;;;;;;;2.53;0.95;;;24.60;74.10;;;;;;5017058;28;20060;-74
2022/07/06 12:04:12;;;;;;;2.15;0.70;;;24.70;74.40;;;;;;5017835;28;20052;-72
2022/07/06 12:06:39;;;;;;;;;;;24.80;74.20;;;;;;5034381;28;20046;-73
2022/07/06 12:09:10;;;;;;;1.95;0.70;;;24.80;72.90;;;;;;5017432;28;19932;-73
2022/07/06 12:11:40;;;;;;;2.13;0.70;;;24.80;73.50;;;;;;5035145;28;20068;-74
2022/07/06 12:14:16;;;;;;;2.92;1.23;;;24.80;73.40;;;;;;5000242;28;20046;-72
2022/07/06 12:16:45;;;;;;;2.38;0.75;;;24.80;73.50;;;;;;5018059;28;20045;-73
2022/07/06 12:19:14;;;;;;;1.55;0.77;;;24.90;73.70;;;;;;5034751;28;20064;-72
2022/07/06 12:21:47;;;;;;;3.88;1.20;;;25.00;73.40;;;;;;5033902;28;20049;-72
2022/07/06 12:24:26;;;;;;;2.78;1.00;;;24.90;72.80;;;;;;5035036;28;20049;-73
2022/07/06 12:26:55;;;;;;;2.95;0.70;;;24.80;72.20;;;;;;5016616;28;20490;-74
2022/07/06 12:29:22;;;;;;;2.05;0.70;;;24.80;72.50;;;;;;5017492;28;20049;-75
2022/07/06 12:31:55;;;;;;;4.90;0.80;;;24.80;72.60;;;;;;5034861;28;20041;-72
2022/07/06 12:34:30;;;;;;;2.15;0.50;;;25.00;73.00;;;;;;5033589;28;20045;-72
2022/07/06 12:36:59;;;;;;;1.88;0.60;;;25.20;72.00;;;;;;5017726;28;20372;-73
2022/07/06 12:39:45;;;;;;;3.03;0.70;;;25.20;71.20;;;;;;5034172;28;20045;-72
2022/07/06 12:42:17;;;;;;;3.22;0.68;;;25.00;71.20;;;;;;5000067;28;20053;-73
2022/07/06 12:44:51;;;;;;;3.88;0.75;;;24.70;71.90;;;;;;5017527;28;20049;-74
2022/07/06 12:47:23;;;;;;;1.77;0.55;;;24.50;72.10;;;;;;5000273;28;20053;-73
2022/07/06 12:50:07;;;;;;;2.28;0.85;;;24.30;72.70;;;;;;5034740;28;20053;-72
2022/07/06 12:52:36;;;;;;;4.85;0.80;;;24.10;73.10;;;;;;5017489;28;20353;-73
2022/07/06 12:55:07;;;;;;;1.27;0.50;;;24.00;73.40;;;;;;5015950;28;20061;-73
2022/07/06 12:57:44;;;;;;;1.58;0.57;;;24.20;73.10;;;;;;5017908;28;20461;-72
2022/07/06 13:00:12;;;;;;;3.70;1.15;;;24.30;72.90;;;;;;5037436;28;20412;-73
2022/07/06 13:02:40;;;;;;;;;;;24.50;72.60;;;;;;5038949;28;20053;-72
2022/07/06 13:05:27;;;;;;;;;;;24.70;71.60;;;;;;5021908;28;20291;-72
2022/07/06 13:07:56;;;;;;;;;;;25.00;71.50;;;;;;5037792;28;19921;-73
2022/07/06 13:10:26;;;;;;;1.20;0.60;;;25.20;70.90;;;;;;5020736;28;19925;-72